sensor_id;sensor_type;location;lat;lon;timestamp;P1;durP1;ratioP1;P2;durP2;ratioP2
17201;SDS011;8717;53.588;10.176;2024-02-21T00:01:35;33.13;;;18.77;;
17201;SDS011;8717;53.588;10.176;2024-02-21T00:04:01;32.33;;;17.07;;
17201;SDS011;8717;53.588;10.176;2024-02-21T00:06:28;28.40;;;18.40;;
17201;SDS011;8717;53.588;10.176;2024-02-21T00:08:57;32.67;;;19.27;;
17201;SDS011;8717;53.588;10.176;2024-02-21T00:11:24;36.67;;;19.20;;
17201;SDS011;8717;53.588;10.176;2024-02-21T00:13:51;30.40;;;18.60;;
17201;SDS011;8717;53.588;10.176;2024-02-21T00:16:17;32.60;;;18.00;;
17201;SDS011;8717;53.588;10.176;2024-02-21T00:18:44;36.20;;;19.13;;
17201;SDS011;8717;53.588;10.176;2024-02-21T00:21:11;34.00;;;19.10;;
17201;SDS011;8717;53.588;10.176;2024-02-21T00:23:43;36.07;;;18.83;;
17201;SDS011;8717;53.588;10.176;2024-02-21T00:26:12;30.40;;;17.90;;
17201;SDS011;8717;53.588;10.176;2024-02-21T00:28:40;31.03;;;18.00;;
17201;SDS011;8717;53.588;10.176;2024-02-21T00:31:07;34.27;;;18.63;;
17201;SDS011;8717;53.588;10.176;2024-02-21T00:33:34;29.50;;;19.03;;
17201;SDS011;8717;53.588;10.176;2024-02-21T00:36:00;33.63;;;19.10;;
17201;SDS011;8717;53.588;10.176;2024-02-21T00:38:27;29.80;;;18.67;;
17201;SDS011;8717;53.588;10.176;2024-02-21T00:40:54;30.77;;;18.77;;
17201;SDS011;8717;53.588;10.176;2024-02-21T00:43:22;38.03;;;19.73;;
17201;SDS011;8717;53.588;10.176;2024-02-21T00:45:49;32.40;;;18.80;;
17201;SDS011;8717;53.588;10.176;2024-02-21T00:48:16;36.63;;;19.13;;
17201;SDS011;8717;53.588;10.176;2024-02-21T00:50:44;31.87;;;18.93;;
17201;SDS011;8717;53.588;10.176;2024-02-21T00:53:10;34.93;;;19.77;;
17201;SDS011;8717;53.588;10.176;2024-02-21T00:55:37;32.67;;;19.07;;
17201;SDS011;8717;53.588;10.176;2024-02-21T00:58:05;35.93;;;19.27;;
17201;SDS011;8717;53.588;10.176;2024-02-21T01:00:33;37.87;;;20.20;;
17201;SDS011;8717;53.588;10.176;2024-02-21T01:03:00;33.53;;;20.07;;
17201;SDS011;8717;53.588;10.176;2024-02-21T01:05:26;33.80;;;20.67;;
17201;SDS011;8717;53.588;10.176;2024-02-21T01:07:54;36.83;;;21.40;;
17201;SDS011;8717;53.588;10.176;2024-02-21T01:10:21;31.73;;;19.93;;
17201;SDS011;8717;53.588;10.176;2024-02-21T01:12:48;37.10;;;20.50;;
17201;SDS011;8717;53.588;10.176;2024-02-21T01:15:15;36.20;;;20.17;;
17201;SDS011;8717;53.588;10.176;2024-02-21T01:17:43;40.10;;;21.43;;
17201;SDS011;8717;53.588;10.176;2024-02-21T01:20:10;37.60;;;21.57;;
17201;SDS011;8717;53.588;10.176;2024-02-21T01:22:37;40.37;;;22.67;;
17201;SDS011;8717;53.588;10.176;2024-02-21T01:25:04;38.90;;;21.67;;
17201;SDS011;8717;53.588;10.176;2024-02-21T01:27:32;35.43;;;22.13;;
17201;SDS011;8717;53.588;10.176;2024-02-21T01:29:58;35.40;;;21.53;;
17201;SDS011;8717;53.588;10.176;2024-02-21T01:32:25;37.80;;;21.70;;
17201;SDS011;8717;53.588;10.176;2024-02-21T01:34:54;39.30;;;22.00;;
17201;SDS011;8717;53.588;10.176;2024-02-21T01:37:21;37.07;;;21.97;;
17201;SDS011;8717;53.588;10.176;2024-02-21T01:39:48;35.73;;;20.97;;
17201;SDS011;8717;53.588;10.176;2024-02-21T01:42:15;37.17;;;22.67;;
17201;SDS011;8717;53.588;10.176;2024-02-21T01:44:42;39.43;;;22.70;;
17201;SDS011;8717;53.588;10.176;2024-02-21T01:47:10;35.63;;;21.93;;
17201;SDS011;8717;53.588;10.176;2024-02-21T01:49:38;38.93;;;22.70;;
17201;SDS011;8717;53.588;10.176;2024-02-21T01:52:07;41.87;;;22.87;;
17201;SDS011;8717;53.588;10.176;2024-02-21T01:54:39;34.57;;;22.27;;
17201;SDS011;8717;53.588;10.176;2024-02-21T01:57:06;35.17;;;22.43;;
17201;SDS011;8717;53.588;10.176;2024-02-21T01:59:33;42.20;;;23.47;;
17201;SDS011;8717;53.588;10.176;2024-02-21T02:02:01;30.17;;;21.83;;
17201;SDS011;8717;53.588;10.176;2024-02-21T02:04:28;34.93;;;20.80;;
17201;SDS011;8717;53.588;10.176;2024-02-21T02:06:55;34.47;;;21.87;;
17201;SDS011;8717;53.588;10.176;2024-02-21T02:09:27;40.17;;;23.17;;
17201;SDS011;8717;53.588;10.176;2024-02-21T02:11:54;37.70;;;21.93;;
17201;SDS011;8717;53.588;10.176;2024-02-21T02:14:23;35.00;;;23.10;;
17201;SDS011;8717;53.588;10.176;2024-02-21T02:16:50;37.80;;;22.83;;
17201;SDS011;8717;53.588;10.176;2024-02-21T02:19:17;36.97;;;22.57;;
17201;SDS011;8717;53.588;10.176;2024-02-21T02:21:45;33.53;;;21.63;;
17201;SDS011;8717;53.588;10.176;2024-02-21T02:24:19;36.87;;;24.37;;
17201;SDS011;8717;53.588;10.176;2024-02-21T02:26:47;37.90;;;22.43;;
17201;SDS011;8717;53.588;10.176;2024-02-21T02:29:13;38.13;;;22.73;;
17201;SDS011;8717;53.588;10.176;2024-02-21T02:31:41;33.40;;;22.27;;
17201;SDS011;8717;53.588;10.176;2024-02-21T02:34:08;37.80;;;23.13;;
17201;SDS011;8717;53.588;10.176;2024-02-21T02:36:35;38.13;;;23.00;;
17201;SDS011;8717;53.588;10.176;2024-02-21T02:39:02;32.63;;;23.10;;
17201;SDS011;8717;53.588;10.176;2024-02-21T02:41:30;35.13;;;23.07;;
17201;SDS011;8717;53.588;10.176;2024-02-21T02:43:57;35.60;;;23.77;;
17201;SDS011;8717;53.588;10.176;2024-02-21T02:46:24;40.20;;;24.47;;
17201;SDS011;8717;53.588;10.176;2024-02-21T02:48:51;35.80;;;23.57;;
17201;SDS011;8717;53.588;10.176;2024-02-21T02:51:17;36.90;;;23.50;;
17201;SDS011;8717;53.588;10.176;2024-02-21T02:53:44;34.07;;;24.03;;
17201;SDS011;8717;53.588;10.176;2024-02-21T02:56:13;34.90;;;23.37;;
17201;SDS011;8717;53.588;10.176;2024-02-21T02:58:42;37.50;;;23.60;;
17201;SDS011;8717;53.588;10.176;2024-02-21T03:01:09;40.40;;;24.60;;
17201;SDS011;8717;53.588;10.176;2024-02-21T03:03:36;38.70;;;25.73;;
17201;SDS011;8717;53.588;10.176;2024-02-21T03:06:03;41.80;;;25.47;;
17201;SDS011;8717;53.588;10.176;2024-02-21T03:08:30;43.63;;;25.07;;
17201;SDS011;8717;53.588;10.176;2024-02-21T03:10:57;36.83;;;24.17;;
17201;SDS011;8717;53.588;10.176;2024-02-21T03:13:25;36.53;;;24.60;;
17201;SDS011;8717;53.588;10.176;2024-02-21T03:15:53;40.73;;;24.73;;
17201;SDS011;8717;53.588;10.176;2024-02-21T03:18:20;41.40;;;23.77;;
17201;SDS011;8717;53.588;10.176;2024-02-21T03:20:47;41.23;;;24.70;;
17201;SDS011;8717;53.588;10.176;2024-02-21T03:23:14;38.00;;;24.53;;
17201;SDS011;8717;53.588;10.176;2024-02-21T03:25:40;35.43;;;23.40;;
17201;SDS011;8717;53.588;10.176;2024-02-21T03:28:07;38.97;;;24.70;;
17201;SDS011;8717;53.588;10.176;2024-02-21T03:30:34;39.83;;;24.23;;
17201;SDS011;8717;53.588;10.176;2024-02-21T03:33:02;41.83;;;25.23;;
17201;SDS011;8717;53.588;10.176;2024-02-21T03:35:30;41.97;;;25.37;;
17201;SDS011;8717;53.588;10.176;2024-02-21T03:37:57;37.20;;;24.83;;
17201;SDS011;8717;53.588;10.176;2024-02-21T03:40:24;42.10;;;25.40;;
17201;SDS011;8717;53.588;10.176;2024-02-21T03:42:51;42.93;;;25.47;;
17201;SDS011;8717;53.588;10.176;2024-02-21T03:45:18;39.80;;;25.43;;
17201;SDS011;8717;53.588;10.176;2024-02-21T03:47:44;42.63;;;24.93;;
17201;SDS011;8717;53.588;10.176;2024-02-21T03:50:13;41.77;;;24.87;;
17201;SDS011;8717;53.588;10.176;2024-02-21T03:52:40;39.60;;;24.57;;
17201;SDS011;8717;53.588;10.176;2024-02-21T03:55:07;37.37;;;24.23;;
17201;SDS011;8717;53.588;10.176;2024-02-21T03:57:33;42.33;;;24.20;;
17201;SDS011;8717;53.588;10.176;2024-02-21T04:00:00;36.63;;;24.37;;
17201;SDS011;8717;53.588;10.176;2024-02-21T04:02:32;39.10;;;24.10;;
17201;SDS011;8717;53.588;10.176;2024-02-21T04:04:59;37.03;;;22.77;;
17201;SDS011;8717;53.588;10.176;2024-02-21T04:07:27;37.10;;;25.30;;
17201;SDS011;8717;53.588;10.176;2024-02-21T04:09:54;43.43;;;25.17;;
17201;SDS011;8717;53.588;10.176;2024-02-21T04:12:21;42.00;;;24.87;;
17201;SDS011;8717;53.588;10.176;2024-02-21T04:14:48;40.17;;;24.13;;
17201;SDS011;8717;53.588;10.176;2024-02-21T04:17:15;38.63;;;24.40;;
17201;SDS011;8717;53.588;10.176;2024-02-21T04:19:42;35.93;;;23.33;;
17201;SDS011;8717;53.588;10.176;2024-02-21T04:22:09;35.93;;;23.17;;
17201;SDS011;8717;53.588;10.176;2024-02-21T04:24:37;37.37;;;23.20;;
17201;SDS011;8717;53.588;10.176;2024-02-21T04:27:04;40.73;;;23.33;;
17201;SDS011;8717;53.588;10.176;2024-02-21T04:29:30;33.47;;;22.83;;
17201;SDS011;8717;53.588;10.176;2024-02-21T04:31:58;37.07;;;23.80;;
17201;SDS011;8717;53.588;10.176;2024-02-21T04:34:25;40.73;;;22.60;;
17201;SDS011;8717;53.588;10.176;2024-02-21T04:36:51;40.00;;;23.50;;
17201;SDS011;8717;53.588;10.176;2024-02-21T04:39:18;38.70;;;22.83;;
17201;SDS011;8717;53.588;10.176;2024-02-21T04:41:46;36.93;;;23.83;;
17201;SDS011;8717;53.588;10.176;2024-02-21T04:44:13;39.30;;;23.50;;
17201;SDS011;8717;53.588;10.176;2024-02-21T04:46:41;37.50;;;22.07;;
17201;SDS011;8717;53.588;10.176;2024-02-21T04:49:08;34.27;;;22.87;;
17201;SDS011;8717;53.588;10.176;2024-02-21T04:51:35;36.20;;;22.63;;
17201;SDS011;8717;53.588;10.176;2024-02-21T04:54:02;34.40;;;22.83;;
17201;SDS011;8717;53.588;10.176;2024-02-21T04:56:29;35.07;;;21.97;;
17201;SDS011;8717;53.588;10.176;2024-02-21T04:58:57;32.87;;;21.63;;
17201;SDS011;8717;53.588;10.176;2024-02-21T05:01:24;33.17;;;20.83;;
17201;SDS011;8717;53.588;10.176;2024-02-21T05:03:50;35.67;;;22.20;;
17201;SDS011;8717;53.588;10.176;2024-02-21T05:06:17;28.87;;;20.73;;
17201;SDS011;8717;53.588;10.176;2024-02-21T05:08:44;28.50;;;19.57;;
17201;SDS011;8717;53.588;10.176;2024-02-21T05:11:11;45.93;;;20.83;;
17201;SDS011;8717;53.588;10.176;2024-02-21T05:13:38;23.33;;;17.20;;
17201;SDS011;8717;53.588;10.176;2024-02-21T05:16:06;44.17;;;18.63;;
17201;SDS011;8717;53.588;10.176;2024-02-21T05:18:33;61.40;;;19.10;;
17201;SDS011;8717;53.588;10.176;2024-02-21T05:21:00;80.97;;;21.37;;
17201;SDS011;8717;53.588;10.176;2024-02-21T05:23:27;22.50;;;16.80;;
17201;SDS011;8717;53.588;10.176;2024-02-21T05:25:53;36.80;;;17.80;;
17201;SDS011;8717;53.588;10.176;2024-02-21T05:28:20;33.97;;;17.57;;
17201;SDS011;8717;53.588;10.176;2024-02-21T05:30:47;50.47;;;18.47;;
17201;SDS011;8717;53.588;10.176;2024-02-21T05:33:16;35.00;;;16.40;;
17201;SDS011;8717;53.588;10.176;2024-02-21T05:35:46;32.50;;;15.63;;
17201;SDS011;8717;53.588;10.176;2024-02-21T05:38:13;22.53;;;15.60;;
17201;SDS011;8717;53.588;10.176;2024-02-21T05:40:40;39.93;;;15.83;;
17201;SDS011;8717;53.588;10.176;2024-02-21T05:43:08;24.83;;;14.17;;
17201;SDS011;8717;53.588;10.176;2024-02-21T05:45:35;22.23;;;13.37;;
17201;SDS011;8717;53.588;10.176;2024-02-21T05:48:02;26.97;;;14.33;;
17201;SDS011;8717;53.588;10.176;2024-02-21T05:50:31;20.27;;;14.07;;
17201;SDS011;8717;53.588;10.176;2024-02-21T05:52:58;20.07;;;13.27;;
17201;SDS011;8717;53.588;10.176;2024-02-21T05:55:25;19.90;;;12.53;;
17201;SDS011;8717;53.588;10.176;2024-02-21T05:57:53;21.10;;;12.23;;
17201;SDS011;8717;53.588;10.176;2024-02-21T06:00:20;14.00;;;10.83;;
17201;SDS011;8717;53.588;10.176;2024-02-21T06:02:47;16.47;;;11.57;;
17201;SDS011;8717;53.588;10.176;2024-02-21T06:05:13;12.97;;;10.30;;
17201;SDS011;8717;53.588;10.176;2024-02-21T06:07:41;15.70;;;11.33;;
17201;SDS011;8717;53.588;10.176;2024-02-21T06:10:08;14.50;;;10.70;;
17201;SDS011;8717;53.588;10.176;2024-02-21T06:12:35;12.93;;;10.10;;
17201;SDS011;8717;53.588;10.176;2024-02-21T06:15:02;15.07;;;10.07;;
17201;SDS011;8717;53.588;10.176;2024-02-21T06:17:29;12.23;;;9.80;;
17201;SDS011;8717;53.588;10.176;2024-02-21T06:19:56;11.97;;;9.40;;
17201;SDS011;8717;53.588;10.176;2024-02-21T06:22:23;11.53;;;8.77;;
17201;SDS011;8717;53.588;10.176;2024-02-21T06:24:51;10.97;;;8.03;;
17201;SDS011;8717;53.588;10.176;2024-02-21T06:27:19;11.00;;;7.93;;
17201;SDS011;8717;53.588;10.176;2024-02-21T06:29:46;10.57;;;8.07;;
17201;SDS011;8717;53.588;10.176;2024-02-21T06:32:12;9.00;;;7.03;;
17201;SDS011;8717;53.588;10.176;2024-02-21T06:34:39;7.83;;;6.80;;
17201;SDS011;8717;53.588;10.176;2024-02-21T06:37:06;6.13;;;5.53;;
17201;SDS011;8717;53.588;10.176;2024-02-21T06:39:33;6.83;;;5.23;;
17201;SDS011;8717;53.588;10.176;2024-02-21T06:42:03;5.63;;;4.57;;
17201;SDS011;8717;53.588;10.176;2024-02-21T06:44:30;5.27;;;4.53;;
17201;SDS011;8717;53.588;10.176;2024-02-21T06:47:01;4.97;;;4.10;;
17201;SDS011;8717;53.588;10.176;2024-02-21T06:49:28;4.80;;;4.03;;
17201;SDS011;8717;53.588;10.176;2024-02-21T06:51:55;6.13;;;4.10;;
17201;SDS011;8717;53.588;10.176;2024-02-21T06:54:22;5.07;;;3.60;;
17201;SDS011;8717;53.588;10.176;2024-02-21T06:56:49;4.80;;;3.70;;
17201;SDS011;8717;53.588;10.176;2024-02-21T06:59:17;5.37;;;3.67;;
17201;SDS011;8717;53.588;10.176;2024-02-21T07:01:44;4.13;;;3.30;;
17201;SDS011;8717;53.588;10.176;2024-02-21T07:04:12;4.47;;;3.50;;
17201;SDS011;8717;53.588;10.176;2024-02-21T07:06:38;5.20;;;4.13;;
17201;SDS011;8717;53.588;10.176;2024-02-21T07:09:05;5.17;;;4.10;;
17201;SDS011;8717;53.588;10.176;2024-02-21T07:11:32;4.90;;;3.97;;
17201;SDS011;8717;53.588;10.176;2024-02-21T07:13:59;5.40;;;4.30;;
17201;SDS011;8717;53.588;10.176;2024-02-21T07:16:27;4.67;;;3.43;;
17201;SDS011;8717;53.588;10.176;2024-02-21T07:18:54;6.63;;;4.67;;
17201;SDS011;8717;53.588;10.176;2024-02-21T07:21:21;6.67;;;4.27;;
17201;SDS011;8717;53.588;10.176;2024-02-21T07:23:48;4.70;;;4.00;;
17201;SDS011;8717;53.588;10.176;2024-02-21T07:26:15;5.03;;;3.90;;
17201;SDS011;8717;53.588;10.176;2024-02-21T07:28:41;5.50;;;4.50;;
17201;SDS011;8717;53.588;10.176;2024-02-21T07:31:08;6.03;;;4.83;;
17201;SDS011;8717;53.588;10.176;2024-02-21T07:33:36;7.07;;;5.77;;
17201;SDS011;8717;53.588;10.176;2024-02-21T07:36:05;8.40;;;5.73;;
17201;SDS011;8717;53.588;10.176;2024-02-21T07:38:32;8.27;;;6.47;;
17201;SDS011;8717;53.588;10.176;2024-02-21T07:40:59;9.33;;;7.10;;
17201;SDS011;8717;53.588;10.176;2024-02-21T07:43:26;8.83;;;7.00;;
17201;SDS011;8717;53.588;10.176;2024-02-21T07:45:52;10.03;;;7.33;;
17201;SDS011;8717;53.588;10.176;2024-02-21T07:48:20;7.63;;;6.83;;
17201;SDS011;8717;53.588;10.176;2024-02-21T07:50:50;9.23;;;7.27;;
17201;SDS011;8717;53.588;10.176;2024-02-21T07:53:17;10.53;;;7.33;;
17201;SDS011;8717;53.588;10.176;2024-02-21T07:55:45;8.90;;;7.13;;
17201;SDS011;8717;53.588;10.176;2024-02-21T07:58:12;10.40;;;7.27;;
17201;SDS011;8717;53.588;10.176;2024-02-21T08:00:39;9.23;;;7.60;;
17201;SDS011;8717;53.588;10.176;2024-02-21T08:03:05;10.63;;;7.70;;
17201;SDS011;8717;53.588;10.176;2024-02-21T08:05:33;8.63;;;5.83;;
17201;SDS011;8717;53.588;10.176;2024-02-21T08:08:02;7.93;;;6.73;;
17201;SDS011;8717;53.588;10.176;2024-02-21T08:10:29;6.40;;;5.40;;
17201;SDS011;8717;53.588;10.176;2024-02-21T08:12:56;6.67;;;5.23;;
17201;SDS011;8717;53.588;10.176;2024-02-21T08:15:23;6.33;;;4.93;;
17201;SDS011;8717;53.588;10.176;2024-02-21T08:17:53;5.00;;;4.50;;
17201;SDS011;8717;53.588;10.176;2024-02-21T08:20:24;5.47;;;4.80;;
17201;SDS011;8717;53.588;10.176;2024-02-21T08:22:50;5.63;;;4.60;;
17201;SDS011;8717;53.588;10.176;2024-02-21T08:25:18;5.97;;;4.53;;
17201;SDS011;8717;53.588;10.176;2024-02-21T08:27:45;7.77;;;4.90;;
17201;SDS011;8717;53.588;10.176;2024-02-21T08:30:12;6.63;;;4.17;;
17201;SDS011;8717;53.588;10.176;2024-02-21T08:32:39;4.73;;;3.67;;
17201;SDS011;8717;53.588;10.176;2024-02-21T08:35:06;9.40;;;4.00;;
17201;SDS011;8717;53.588;10.176;2024-02-21T08:37:33;7.60;;;3.40;;
17201;SDS011;8717;53.588;10.176;2024-02-21T08:40:00;8.67;;;3.50;;
17201;SDS011;8717;53.588;10.176;2024-02-21T08:42:34;9.30;;;3.80;;
17201;SDS011;8717;53.588;10.176;2024-02-21T08:45:01;9.90;;;3.90;;
17201;SDS011;8717;53.588;10.176;2024-02-21T08:47:28;10.43;;;3.90;;
17201;SDS011;8717;53.588;10.176;2024-02-21T08:49:55;11.67;;;3.50;;
17201;SDS011;8717;53.588;10.176;2024-02-21T08:52:22;13.90;;;3.73;;
17201;SDS011;8717;53.588;10.176;2024-02-21T08:54:48;11.33;;;3.87;;
17201;SDS011;8717;53.588;10.176;2024-02-21T08:57:18;10.03;;;4.17;;
17201;SDS011;8717;53.588;10.176;2024-02-21T08:59:46;14.43;;;3.93;;
17201;SDS011;8717;53.588;10.176;2024-02-21T09:02:13;12.87;;;3.77;;
17201;SDS011;8717;53.588;10.176;2024-02-21T09:04:41;12.87;;;3.40;;
17201;SDS011;8717;53.588;10.176;2024-02-21T09:07:08;13.17;;;4.13;;
17201;SDS011;8717;53.588;10.176;2024-02-21T09:09:35;10.83;;;3.90;;
17201;SDS011;8717;53.588;10.176;2024-02-21T09:12:03;16.60;;;4.00;;
17201;SDS011;8717;53.588;10.176;2024-02-21T09:14:31;16.53;;;4.17;;
17201;SDS011;8717;53.588;10.176;2024-02-21T09:16:59;16.47;;;4.07;;
17201;SDS011;8717;53.588;10.176;2024-02-21T09:19:26;11.10;;;4.43;;
17201;SDS011;8717;53.588;10.176;2024-02-21T09:21:53;14.30;;;3.73;;
17201;SDS011;8717;53.588;10.176;2024-02-21T09:24:20;12.27;;;3.80;;
17201;SDS011;8717;53.588;10.176;2024-02-21T09:26:47;9.87;;;3.33;;
17201;SDS011;8717;53.588;10.176;2024-02-21T09:29:14;14.00;;;3.30;;
17201;SDS011;8717;53.588;10.176;2024-02-21T09:31:41;11.47;;;3.23;;
17201;SDS011;8717;53.588;10.176;2024-02-21T09:34:09;8.47;;;3.37;;
17201;SDS011;8717;53.588;10.176;2024-02-21T09:36:37;9.77;;;3.20;;
17201;SDS011;8717;53.588;10.176;2024-02-21T09:39:05;11.97;;;3.77;;
17201;SDS011;8717;53.588;10.176;2024-02-21T09:41:32;11.60;;;3.73;;
17201;SDS011;8717;53.588;10.176;2024-02-21T09:44:04;14.67;;;3.73;;
17201;SDS011;8717;53.588;10.176;2024-02-21T09:46:35;8.30;;;3.10;;
17201;SDS011;8717;53.588;10.176;2024-02-21T09:49:13;11.00;;;3.20;;
17201;SDS011;8717;53.588;10.176;2024-02-21T09:51:49;10.13;;;3.27;;
17201;SDS011;8717;53.588;10.176;2024-02-21T09:54:20;9.37;;;3.60;;
17201;SDS011;8717;53.588;10.176;2024-02-21T09:56:47;10.00;;;3.50;;
17201;SDS011;8717;53.588;10.176;2024-02-21T09:59:14;11.40;;;3.23;;
17201;SDS011;8717;53.588;10.176;2024-02-21T10:01:42;8.70;;;3.13;;
17201;SDS011;8717;53.588;10.176;2024-02-21T10:04:09;6.57;;;3.03;;
17201;SDS011;8717;53.588;10.176;2024-02-21T10:06:37;9.67;;;2.97;;
17201;SDS011;8717;53.588;10.176;2024-02-21T10:09:05;10.23;;;3.47;;
17201;SDS011;8717;53.588;10.176;2024-02-21T10:11:32;9.17;;;2.70;;
17201;SDS011;8717;53.588;10.176;2024-02-21T10:14:03;7.37;;;2.70;;
17201;SDS011;8717;53.588;10.176;2024-02-21T10:16:31;7.93;;;3.47;;
17201;SDS011;8717;53.588;10.176;2024-02-21T10:18:58;8.83;;;3.53;;
17201;SDS011;8717;53.588;10.176;2024-02-21T10:21:25;8.07;;;3.30;;
17201;SDS011;8717;53.588;10.176;2024-02-21T10:23:53;4.63;;;3.10;;
17201;SDS011;8717;53.588;10.176;2024-02-21T10:26:20;6.33;;;3.77;;
17201;SDS011;8717;53.588;10.176;2024-02-21T10:28:47;6.40;;;3.70;;
17201;SDS011;8717;53.588;10.176;2024-02-21T10:31:22;9.77;;;5.03;;
17201;SDS011;8717;53.588;10.176;2024-02-21T10:33:54;9.70;;;5.33;;
17201;SDS011;8717;53.588;10.176;2024-02-21T10:36:21;10.37;;;5.63;;
17201;SDS011;8717;53.588;10.176;2024-02-21T10:38:49;9.37;;;6.07;;
17201;SDS011;8717;53.588;10.176;2024-02-21T10:41:19;10.10;;;6.80;;
17201;SDS011;8717;53.588;10.176;2024-02-21T10:43:48;10.90;;;7.70;;
17201;SDS011;8717;53.588;10.176;2024-02-21T10:46:18;13.17;;;9.03;;
17201;SDS011;8717;53.588;10.176;2024-02-21T10:48:46;16.30;;;9.83;;
17201;SDS011;8717;53.588;10.176;2024-02-21T10:51:16;13.93;;;11.00;;
17201;SDS011;8717;53.588;10.176;2024-02-21T10:53:45;15.47;;;11.10;;
17201;SDS011;8717;53.588;10.176;2024-02-21T10:56:22;15.93;;;12.20;;
17201;SDS011;8717;53.588;10.176;2024-02-21T10:58:52;16.10;;;12.07;;
17201;SDS011;8717;53.588;10.176;2024-02-21T11:01:20;16.83;;;12.83;;
17201;SDS011;8717;53.588;10.176;2024-02-21T11:03:49;23.20;;;14.30;;
17201;SDS011;8717;53.588;10.176;2024-02-21T11:06:20;18.30;;;13.47;;
17201;SDS011;8717;53.588;10.176;2024-02-21T11:08:48;26.90;;;18.10;;
17201;SDS011;8717;53.588;10.176;2024-02-21T11:11:29;24.33;;;15.17;;
17201;SDS011;8717;53.588;10.176;2024-02-21T11:14:03;23.17;;;15.37;;
17201;SDS011;8717;53.588;10.176;2024-02-21T11:16:35;25.13;;;15.50;;
17201;SDS011;8717;53.588;10.176;2024-02-21T11:19:06;25.50;;;15.80;;
17201;SDS011;8717;53.588;10.176;2024-02-21T11:21:34;24.67;;;15.70;;
17201;SDS011;8717;53.588;10.176;2024-02-21T11:24:01;22.63;;;15.43;;
17201;SDS011;8717;53.588;10.176;2024-02-21T11:26:30;27.80;;;13.83;;
17201;SDS011;8717;53.588;10.176;2024-02-21T11:28:58;20.90;;;13.43;;
17201;SDS011;8717;53.588;10.176;2024-02-21T11:31:26;22.30;;;12.87;;
17201;SDS011;8717;53.588;10.176;2024-02-21T11:33:52;20.10;;;13.43;;
17201;SDS011;8717;53.588;10.176;2024-02-21T11:36:23;21.20;;;13.37;;
17201;SDS011;8717;53.588;10.176;2024-02-21T11:38:51;21.80;;;13.63;;
17201;SDS011;8717;53.588;10.176;2024-02-21T11:41:18;20.97;;;13.17;;
17201;SDS011;8717;53.588;10.176;2024-02-21T11:43:47;20.47;;;12.37;;
17201;SDS011;8717;53.588;10.176;2024-02-21T11:46:15;19.07;;;12.80;;
17201;SDS011;8717;53.588;10.176;2024-02-21T11:48:42;16.40;;;11.73;;
17201;SDS011;8717;53.588;10.176;2024-02-21T11:51:20;19.53;;;11.67;;
17201;SDS011;8717;53.588;10.176;2024-02-21T11:53:48;17.90;;;10.23;;
17201;SDS011;8717;53.588;10.176;2024-02-21T11:56:14;16.43;;;10.67;;
17201;SDS011;8717;53.588;10.176;2024-02-21T11:58:41;18.47;;;11.17;;
17201;SDS011;8717;53.588;10.176;2024-02-21T12:01:10;17.10;;;11.07;;
17201;SDS011;8717;53.588;10.176;2024-02-21T12:03:37;18.30;;;10.50;;
17201;SDS011;8717;53.588;10.176;2024-02-21T12:06:06;16.57;;;10.60;;
17201;SDS011;8717;53.588;10.176;2024-02-21T12:08:40;16.47;;;10.63;;
17201;SDS011;8717;53.588;10.176;2024-02-21T12:11:15;14.23;;;10.30;;
17201;SDS011;8717;53.588;10.176;2024-02-21T12:13:45;16.73;;;10.23;;
17201;SDS011;8717;53.588;10.176;2024-02-21T12:16:15;15.83;;;9.67;;
17201;SDS011;8717;53.588;10.176;2024-02-21T12:18:44;16.50;;;9.83;;
17201;SDS011;8717;53.588;10.176;2024-02-21T12:21:11;17.03;;;10.63;;
17201;SDS011;8717;53.588;10.176;2024-02-21T12:23:38;16.17;;;10.63;;
17201;SDS011;8717;53.588;10.176;2024-02-21T12:26:05;19.33;;;9.77;;
17201;SDS011;8717;53.588;10.176;2024-02-21T12:28:33;17.30;;;10.57;;
17201;SDS011;8717;53.588;10.176;2024-02-21T12:31:00;16.33;;;10.67;;
17201;SDS011;8717;53.588;10.176;2024-02-21T12:33:30;15.50;;;10.47;;
17201;SDS011;8717;53.588;10.176;2024-02-21T12:35:58;16.00;;;9.63;;
17201;SDS011;8717;53.588;10.176;2024-02-21T12:38:25;14.60;;;9.97;;
17201;SDS011;8717;53.588;10.176;2024-02-21T12:40:51;14.97;;;10.00;;
17201;SDS011;8717;53.588;10.176;2024-02-21T12:43:18;15.50;;;10.00;;
17201;SDS011;8717;53.588;10.176;2024-02-21T12:45:45;16.10;;;10.63;;
17201;SDS011;8717;53.588;10.176;2024-02-21T12:48:12;18.43;;;10.63;;
17201;SDS011;8717;53.588;10.176;2024-02-21T12:50:40;16.17;;;9.90;;
17201;SDS011;8717;53.588;10.176;2024-02-21T12:53:16;15.87;;;10.90;;
17201;SDS011;8717;53.588;10.176;2024-02-21T12:55:44;15.70;;;11.03;;
17201;SDS011;8717;53.588;10.176;2024-02-21T12:58:11;19.73;;;12.43;;
17201;SDS011;8717;53.588;10.176;2024-02-21T13:00:39;18.60;;;13.07;;
17201;SDS011;8717;53.588;10.176;2024-02-21T13:03:05;19.27;;;13.17;;
17201;SDS011;8717;53.588;10.176;2024-02-21T13:05:32;19.70;;;12.33;;
17201;SDS011;8717;53.588;10.176;2024-02-21T13:08:01;17.97;;;13.20;;
17201;SDS011;8717;53.588;10.176;2024-02-21T13:10:28;23.17;;;12.67;;
17201;SDS011;8717;53.588;10.176;2024-02-21T13:12:54;17.57;;;12.47;;
17201;SDS011;8717;53.588;10.176;2024-02-21T13:15:21;22.33;;;12.83;;
17201;SDS011;8717;53.588;10.176;2024-02-21T13:17:48;20.30;;;14.43;;
17201;SDS011;8717;53.588;10.176;2024-02-21T13:20:15;20.23;;;12.90;;
17201;SDS011;8717;53.588;10.176;2024-02-21T13:22:41;21.67;;;13.60;;
17201;SDS011;8717;53.588;10.176;2024-02-21T13:25:09;22.83;;;13.30;;
17201;SDS011;8717;53.588;10.176;2024-02-21T13:27:40;23.93;;;13.20;;
17201;SDS011;8717;53.588;10.176;2024-02-21T13:30:07;18.97;;;12.90;;
17201;SDS011;8717;53.588;10.176;2024-02-21T13:32:35;21.07;;;13.40;;
17201;SDS011;8717;53.588;10.176;2024-02-21T13:35:01;20.17;;;13.43;;
17201;SDS011;8717;53.588;10.176;2024-02-21T13:37:29;18.03;;;12.33;;
17201;SDS011;8717;53.588;10.176;2024-02-21T13:39:55;22.13;;;12.63;;
17201;SDS011;8717;53.588;10.176;2024-02-21T13:42:24;20.53;;;12.33;;
17201;SDS011;8717;53.588;10.176;2024-02-21T13:44:53;22.97;;;12.37;;
17201;SDS011;8717;53.588;10.176;2024-02-21T13:47:19;20.60;;;12.10;;
17201;SDS011;8717;53.588;10.176;2024-02-21T13:49:47;20.40;;;12.63;;
17201;SDS011;8717;53.588;10.176;2024-02-21T13:52:14;18.93;;;12.03;;
17201;SDS011;8717;53.588;10.176;2024-02-21T13:54:42;18.17;;;12.17;;
17201;SDS011;8717;53.588;10.176;2024-02-21T13:57:09;17.03;;;11.97;;
17201;SDS011;8717;53.588;10.176;2024-02-21T13:59:37;20.30;;;12.93;;
17201;SDS011;8717;53.588;10.176;2024-02-21T14:02:04;18.93;;;12.87;;
17201;SDS011;8717;53.588;10.176;2024-02-21T14:04:33;16.90;;;12.30;;
17201;SDS011;8717;53.588;10.176;2024-02-21T14:06:59;18.27;;;11.37;;
17201;SDS011;8717;53.588;10.176;2024-02-21T14:09:27;21.50;;;11.73;;
17201;SDS011;8717;53.588;10.176;2024-02-21T14:11:54;19.37;;;12.67;;
17201;SDS011;8717;53.588;10.176;2024-02-21T14:14:21;21.20;;;13.00;;
17201;SDS011;8717;53.588;10.176;2024-02-21T14:16:49;18.63;;;11.53;;
17201;SDS011;8717;53.588;10.176;2024-02-21T14:19:16;17.47;;;12.50;;
17201;SDS011;8717;53.588;10.176;2024-02-21T14:21:43;16.80;;;11.70;;
17201;SDS011;8717;53.588;10.176;2024-02-21T14:24:10;16.97;;;12.20;;
17201;SDS011;8717;53.588;10.176;2024-02-21T14:26:37;20.23;;;12.53;;
17201;SDS011;8717;53.588;10.176;2024-02-21T14:29:06;21.53;;;12.17;;
17201;SDS011;8717;53.588;10.176;2024-02-21T14:31:33;17.23;;;11.77;;